Port Vila Bauerfield Airport Port Vila VU
ICAO: NVVV
IATA:
Category: Medium
Scheduled Services:

Elevation: 70 ft
TransAlt. 11000 ft.

Airport Communications:
FLT SVC:120.7
FLT SVC:1133.9
CTAF:120.7
TWR:120.7
TWR:1133.9

NVVV Zoom In..

Runways:

(A) RW 11 length 8530 ft width 148 ft
LOC 110.70 / hdg 106

(B) RW 29 length 8530 ft width 148 ft
LOC 110.70 / hdg 286

Location; NVVV
Day. 06 / Time. 22.00 Zulu
* QNH: 1014
* Temperature: 25° c. 77°f.
* Wind from: 130° Speed 12 kn.
Dewpoint: 20° c.
Visibility: 10 km or more.
Clouds: Broken 2000 ft.
Clouds: Overcast 4000 ft.

NVVV 062200Z 13012KT 9999 BKN020 OVC040 25/20 Q1014


Wind From 130°
Speed 12 kn.

 
 
jpsmedia worldairports.se 2020   terms of use